Terminal Aerodrome Forecast
Issued by NWS

Home | Current Version | Previous Version | Text Only | Print | Product List | Glossary Off
Versions: 1 2 3 4 5 6 7 8 9 10 11 12 13 14 15 16

000
FTUS43 KFGF 221120
TAFBJI
TAF
KBJI 221120Z 2212/2312 00000KT 3/4SM BR OVC006
      TEMPO 2212/2214 1/2SM FG BKN003
     FM221400 00000KT 1/2SM FG OVC003
      TEMPO 2214/2218 1/4SM FG
     FM221800 00000KT 3/4SM BR OVC003=

USA.gov is the U.S. government's official web portal to all federal, state and local government web resources and services.